Time;durP1;ratioP1;P1;durP2;ratioP2;P2;SDS_P1;SDS_P2;PMS_P1;PMS_P2;Temp;Humidity;BMP_temperature;BMP_pressure;BME280_temperature;BME280_humidity;BME280_pressure;Samples;Min_cycle;Max_cycle;Signal;HPM_P1;HPM_P2
2023/03/08 00:01:27;;;;;;;11.63;5.27;;;6.10;94.60;;;;;;4984005;28;20054;-73
2023/03/08 00:03:54;;;;;;;9.97;4.63;;;6.00;94.80;;;;;;4986975;28;20460;-73
2023/03/08 00:06:20;;;;;;;8.63;4.83;;;5.90;94.80;;;;;;4975760;28;20042;-73
2023/03/08 00:08:47;;;;;;;7.90;4.27;;;5.90;95.10;;;;;;4985628;28;20072;-74
2023/03/08 00:11:16;;;;;;;10.30;5.27;;;5.80;95.30;;;;;;4981787;28;20400;-74
2023/03/08 00:13:42;;;;;;;12.87;5.07;;;5.80;95.80;;;;;;4997414;28;20062;-75
2023/03/08 00:16:10;;;;;;;8.83;5.00;;;5.70;96.30;;;;;;4976857;28;20057;-75
2023/03/08 00:18:36;;;;;;;12.43;5.57;;;5.70;96.70;;;;;;4987151;28;20031;-73
2023/03/08 00:21:11;;;;;;;10.10;5.37;;;5.70;96.90;;;;;;4979631;28;20468;-75
2023/03/08 00:23:36;;;;;;;10.93;5.20;;;5.60;97.40;;;;;;4980303;28;20077;-74
2023/03/08 00:26:03;;;;;;;16.50;5.30;;;5.60;97.20;;;;;;4988934;28;20487;-75
2023/03/08 00:28:29;;;;;;;11.13;5.03;;;5.60;97.50;;;;;;4975813;28;20034;-74
2023/03/08 00:31:00;;;;;;;15.40;5.20;;;5.50;97.50;;;;;;4984358;28;20022;-74
2023/03/08 00:33:26;;;;;;;9.13;4.65;;;5.50;97.70;;;;;;4977683;28;20491;-74
2023/03/08 00:35:59;;;;;;;9.30;5.40;;;5.50;97.70;;;;;;4986362;28;20026;-74
2023/03/08 00:38:26;;;;;;;11.33;5.57;;;5.50;97.80;;;;;;4975285;28;20053;-74
2023/03/08 00:40:52;;;;;;;12.10;4.83;;;5.40;97.80;;;;;;4991004;28;20387;-72
2023/03/08 00:43:18;;;;;;;8.87;4.87;;;5.40;97.90;;;;;;4981375;28;20027;-73
2023/03/08 00:45:44;;;;;;;9.30;4.90;;;5.40;98.10;;;;;;4985179;28;20027;-73
2023/03/08 00:48:10;;;;;;;9.20;5.13;;;5.30;98.20;;;;;;4975193;28;20468;-73
2023/03/08 00:50:35;;;;;;;11.97;5.87;;;5.30;98.20;;;;;;4992742;28;20046;-72
2023/03/08 00:53:01;;;;;;;14.43;5.30;;;5.30;98.20;;;;;;4991036;28;20035;-73
2023/03/08 00:55:27;;;;;;;14.10;5.93;;;5.30;98.30;;;;;;4981839;28;20046;-72
2023/03/08 00:57:52;;;;;;;14.80;5.80;;;5.30;98.30;;;;;;4940674;29;20492;-72
2023/03/08 01:00:18;;;;;;;12.43;5.90;;;5.30;98.60;;;;;;4953936;28;20033;-72
2023/03/08 01:02:44;;;;;;;14.10;6.30;;;5.20;98.50;;;;;;4949938;28;20030;-75
2023/03/08 01:05:09;;;;;;;11.30;5.83;;;5.30;98.70;;;;;;4959344;28;20415;-72
2023/03/08 01:07:35;;;;;;;12.20;5.77;;;5.20;98.70;;;;;;4947305;29;20070;-72
2023/03/08 01:10:04;;;;;;;13.40;5.63;;;5.20;98.80;;;;;;4957296;29;20122;-72
2023/03/08 01:12:31;;;;;;;11.17;5.40;;;5.20;99.00;;;;;;4959105;28;20027;-73
2023/03/08 01:14:57;;;;;;;14.90;5.50;;;5.20;99.10;;;;;;4951768;29;20487;-73
2023/03/08 01:17:22;;;;;;;12.87;6.10;;;5.20;99.10;;;;;;4968023;28;20035;-72
2023/03/08 01:19:48;;;;;;;14.57;5.70;;;5.20;99.20;;;;;;4961930;28;20035;-73
2023/03/08 01:22:13;;;;;;;11.43;5.50;;;5.10;99.30;;;;;;4955930;28;20031;-73
2023/03/08 01:24:44;;;;;;;13.07;6.27;;;5.10;99.40;;;;;;4945143;28;20110;-73
2023/03/08 01:27:09;;;;;;;13.13;6.40;;;5.10;99.50;;;;;;4950374;29;20069;-73
2023/03/08 01:29:35;;;;;;;14.77;5.77;;;5.10;99.60;;;;;;4969859;28;20058;-72
2023/03/08 01:32:01;;;;;;;13.60;5.87;;;5.10;99.60;;;;;;4943016;29;20522;-73
2023/03/08 01:34:26;;;;;;;10.00;5.93;;;5.10;99.70;;;;;;4976248;28;20038;-72
2023/03/08 01:36:52;;;;;;;12.40;5.57;;;5.10;99.90;;;;;;4951990;29;20043;-73
2023/03/08 01:39:17;;;;;;;12.50;6.13;;;5.10;99.90;;;;;;4949862;28;20117;-73
2023/03/08 01:41:44;;;;;;;14.60;6.30;;;5.10;99.90;;;;;;4965682;28;20468;-74
2023/03/08 01:44:18;;;;;;;12.77;6.07;;;5.00;99.90;;;;;;4957219;28;20391;-74
2023/03/08 01:46:44;;;;;;;17.27;5.83;;;5.00;99.90;;;;;;4970506;28;20492;-80
2023/03/08 01:49:32;;;;;;;13.83;7.10;;;5.00;99.90;;;;;;4947884;28;20035;-75
2023/03/08 01:52:08;;;;;;;13.60;5.57;;;5.00;99.90;;;;;;4963531;28;20035;-73
2023/03/08 01:54:46;;;;;;;12.07;6.00;;;5.00;99.90;;;;;;4945351;29;20039;-73
2023/03/08 01:57:31;;;;;;;11.07;5.67;;;4.90;99.90;;;;;;4965619;28;20538;-73
2023/03/08 02:00:08;;;;;;;12.17;6.13;;;5.00;99.90;;;;;;4958990;28;20113;-74
2023/03/08 02:02:41;;;;;;;12.73;6.30;;;5.00;99.90;;;;;;4960181;28;20027;-73
2023/03/08 02:05:09;;;;;;;14.80;5.97;;;5.00;99.90;;;;;;4957081;28;20495;-74
2023/03/08 02:07:34;;;;;;;13.13;6.13;;;5.00;99.90;;;;;;4967584;28;20042;-78
2023/03/08 02:10:00;;;;;;;11.73;5.77;;;5.00;99.90;;;;;;4975791;28;20501;-75
2023/03/08 02:12:26;;;;;;;13.60;6.40;;;5.00;99.90;;;;;;4972288;28;20090;-74
2023/03/08 02:14:52;;;;;;;13.67;6.37;;;5.00;99.90;;;;;;4960772;28;20027;-74
2023/03/08 02:17:18;;;;;;;11.33;5.37;;;5.00;99.90;;;;;;4974350;28;20392;-74
2023/03/08 02:19:58;;;;;;;16.13;7.13;;;5.00;99.90;;;;;;4962188;28;20032;-74
2023/03/08 02:22:24;;;;;;;13.03;6.07;;;5.00;99.90;;;;;;4958056;28;20023;-74
2023/03/08 02:24:50;;;;;;;13.37;6.37;;;5.00;99.90;;;;;;4968869;28;20110;-74
2023/03/08 02:27:25;;;;;;;14.73;6.73;;;5.00;99.90;;;;;;4966215;28;20038;-74
2023/03/08 02:29:51;;;;;;;12.53;6.13;;;5.00;99.90;;;;;;4960614;28;20095;-74
2023/03/08 02:32:17;;;;;;;12.83;6.40;;;5.00;99.90;;;;;;4958179;28;20528;-74
2023/03/08 02:34:43;;;;;;;13.83;6.33;;;5.10;99.90;;;;;;4973919;28;20034;-74
2023/03/08 02:37:09;;;;;;;11.93;5.90;;;5.10;99.90;;;;;;4964687;28;20102;-74
2023/03/08 02:39:34;;;;;;;12.97;5.80;;;5.00;99.90;;;;;;4954951;29;20040;-74
2023/03/08 02:42:00;;;;;;;12.63;6.17;;;5.10;99.90;;;;;;4970036;28;20058;-74
2023/03/08 02:44:25;;;;;;;11.40;5.90;;;5.10;99.90;;;;;;4957924;28;20383;-73
2023/03/08 02:46:52;;;;;;;12.80;5.80;;;5.10;99.90;;;;;;4967086;28;20027;-73
2023/03/08 02:49:17;;;;;;;13.60;5.97;;;5.10;99.90;;;;;;4964635;28;20038;-74
2023/03/08 02:51:43;;;;;;;15.00;6.30;;;5.20;99.90;;;;;;4960383;28;20027;-74
2023/03/08 02:54:09;;;;;;;10.93;5.73;;;5.10;99.90;;;;;;4969877;28;20030;-76
2023/03/08 02:56:36;;;;;;;14.47;5.33;;;5.10;99.90;;;;;;4975350;28;20108;-74
2023/03/08 02:59:02;;;;;;;13.90;6.43;;;5.10;99.90;;;;;;4985833;28;20030;-74
2023/03/08 03:01:28;;;;;;;12.40;5.60;;;5.10;99.90;;;;;;4968921;28;20026;-74
2023/03/08 03:03:54;;;;;;;14.23;6.20;;;5.10;99.90;;;;;;4980330;28;20038;-74
2023/03/08 03:06:20;;;;;;;14.67;5.93;;;5.10;99.90;;;;;;4960637;28;20049;-73
2023/03/08 03:08:46;;;;;;;11.00;5.40;;;5.00;99.90;;;;;;4988448;28;20019;-74
2023/03/08 03:11:18;;;;;;;11.80;5.63;;;5.10;99.90;;;;;;4966627;28;20022;-74
2023/03/08 03:13:44;;;;;;;13.18;5.72;;;5.00;99.90;;;;;;4980653;28;20097;-74
2023/03/08 03:16:13;;;;;;;14.40;5.83;;;5.10;99.90;;;;;;4958680;28;20041;-75
2023/03/08 03:18:39;;;;;;;12.80;5.90;;;5.00;99.90;;;;;;4988926;28;20041;-74
2023/03/08 03:21:11;;;;;;;11.23;5.60;;;5.00;99.90;;;;;;4965072;28;20023;-74
2023/03/08 03:23:37;;;;;;;14.73;6.45;;;5.00;99.90;;;;;;4977044;28;20081;-74
2023/03/08 03:26:11;;;;;;;13.53;6.30;;;5.00;99.90;;;;;;4959326;28;20117;-75
2023/03/08 03:28:37;;;;;;;12.60;5.90;;;5.00;99.90;;;;;;4976862;28;20034;-73
2023/03/08 03:31:12;;;;;;;12.33;5.53;;;5.00;99.90;;;;;;4976316;28;20478;-73
2023/03/08 03:33:38;;;;;;;11.70;5.93;;;5.00;99.90;;;;;;4976998;28;20030;-73
2023/03/08 03:36:04;;;;;;;15.63;6.13;;;5.00;99.90;;;;;;4976235;28;20080;-73
2023/03/08 03:38:30;;;;;;;11.13;5.50;;;5.10;99.90;;;;;;4976671;28;20046;-73
2023/03/08 03:41:04;;;;;;;11.43;5.80;;;5.10;99.90;;;;;;4976175;28;20026;-74
2023/03/08 03:43:30;;;;;;;12.40;5.97;;;5.10;99.90;;;;;;4976726;28;20443;-74
2023/03/08 03:46:01;;;;;;;11.87;5.73;;;5.10;99.90;;;;;;4976214;28;20388;-74
2023/03/08 03:48:27;;;;;;;10.73;5.37;;;5.10;99.90;;;;;;4976541;28;20030;-73
2023/03/08 03:50:57;;;;;;;13.67;6.23;;;5.10;99.90;;;;;;4992945;28;20034;-74
2023/03/08 03:53:24;;;;;;;13.13;5.57;;;5.10;99.90;;;;;;4994016;28;20026;-74
2023/03/08 03:55:50;;;;;;;13.63;6.10;;;5.10;99.90;;;;;;4993061;28;20100;-76
2023/03/08 03:58:16;;;;;;;15.03;5.97;;;5.10;99.90;;;;;;4976603;28;20460;-74
2023/03/08 04:00:42;;;;;;;13.37;6.70;;;5.10;99.90;;;;;;4976530;28;20169;-73
2023/03/08 04:03:07;;;;;;;12.87;5.83;;;5.20;99.90;;;;;;4975894;28;20045;-73
2023/03/08 04:05:33;;;;;;;14.50;6.23;;;5.10;99.90;;;;;;4976277;28;20388;-74
2023/03/08 04:07:58;;;;;;;11.80;5.97;;;5.10;99.90;;;;;;4975988;28;20143;-74
2023/03/08 04:10:24;;;;;;;11.07;5.60;;;5.10;99.90;;;;;;4993576;28;20490;-73
2023/03/08 04:12:51;;;;;;;12.73;6.30;;;5.20;99.90;;;;;;4976223;28;20030;-74
2023/03/08 04:15:17;;;;;;;13.20;6.70;;;5.10;99.90;;;;;;4993895;28;20045;-74
2023/03/08 04:17:42;;;;;;;11.90;5.70;;;5.10;99.90;;;;;;4993490;28;20034;-74
2023/03/08 04:20:09;;;;;;;13.37;6.70;;;5.20;99.90;;;;;;4993377;28;20033;-74
2023/03/08 04:22:35;;;;;;;11.67;5.53;;;5.20;99.90;;;;;;4993477;28;20081;-74
2023/03/08 04:25:01;;;;;;;14.53;5.70;;;5.10;99.90;;;;;;4975596;28;20026;-74
2023/03/08 04:27:26;;;;;;;11.50;5.67;;;5.20;99.90;;;;;;4976146;28;20038;-74
2023/03/08 04:29:52;;;;;;;13.53;6.10;;;5.20;99.90;;;;;;4992699;28;20030;-74
2023/03/08 04:32:17;;;;;;;13.70;6.13;;;5.20;99.90;;;;;;4976017;28;20533;-73
2023/03/08 04:34:43;;;;;;;13.07;6.00;;;5.20;99.90;;;;;;4993185;28;20033;-73
2023/03/08 04:37:12;;;;;;;13.57;6.03;;;5.10;99.90;;;;;;4975028;28;20506;-74
2023/03/08 04:39:38;;;;;;;12.53;6.20;;;5.20;99.90;;;;;;4976063;28;20027;-74
2023/03/08 04:42:04;;;;;;;13.73;6.00;;;5.20;99.90;;;;;;4975430;28;20490;-73
2023/03/08 04:44:30;;;;;;;10.07;5.63;;;5.20;99.90;;;;;;4993543;28;20026;-73
2023/03/08 04:46:55;;;;;;;13.17;5.87;;;5.20;99.90;;;;;;4975294;28;20038;-74
2023/03/08 04:49:22;;;;;;;10.67;5.57;;;5.20;99.90;;;;;;4993178;28;20029;-73
2023/03/08 04:51:48;;;;;;;12.13;6.03;;;5.20;99.90;;;;;;4975750;28;20030;-73
2023/03/08 04:54:13;;;;;;;15.53;6.20;;;5.20;99.90;;;;;;4975205;28;20030;-73
2023/03/08 04:56:39;;;;;;;11.27;5.63;;;5.20;99.90;;;;;;4993117;28;20053;-73
2023/03/08 04:59:05;;;;;;;11.93;5.83;;;5.20;99.90;;;;;;4975583;28;20427;-73
2023/03/08 05:01:30;;;;;;;13.40;5.97;;;5.20;99.90;;;;;;4975665;28;20027;-73
2023/03/08 05:03:57;;;;;;;15.57;6.37;;;5.20;99.90;;;;;;4993154;28;20109;-74
2023/03/08 05:06:24;;;;;;;13.20;6.17;;;5.20;99.90;;;;;;4993320;28;20042;-73
2023/03/08 05:08:50;;;;;;;14.30;6.37;;;5.20;99.90;;;;;;4976018;28;20097;-73
2023/03/08 05:11:25;;;;;;;12.90;6.03;;;5.20;99.90;;;;;;4975216;28;20475;-73
2023/03/08 05:13:53;;;;;;;13.80;6.43;;;5.20;99.90;;;;;;4975739;28;20057;-73
2023/03/08 05:16:19;;;;;;;10.70;5.80;;;5.20;99.90;;;;;;4992723;28;20027;-73
2023/03/08 05:18:45;;;;;;;14.03;6.47;;;5.10;99.90;;;;;;4975614;28;20027;-73
2023/03/08 05:21:13;;;;;;;10.70;5.70;;;5.10;99.90;;;;;;4992485;28;20027;-74
2023/03/08 05:23:39;;;;;;;11.93;6.30;;;5.10;99.90;;;;;;4992484;28;20037;-73
2023/03/08 05:26:06;;;;;;;12.30;5.90;;;5.10;99.90;;;;;;4992325;28;20023;-75
2023/03/08 05:28:33;;;;;;;15.07;6.27;;;5.20;99.90;;;;;;4992974;28;20037;-73
2023/03/08 05:31:09;;;;;;;11.13;5.50;;;5.10;99.90;;;;;;4975161;28;20030;-75
2023/03/08 05:33:35;;;;;;;14.50;5.73;;;5.20;99.90;;;;;;4975587;28;20054;-73
2023/03/08 05:36:01;;;;;;;13.00;5.93;;;5.20;99.90;;;;;;4992053;28;20101;-74
2023/03/08 05:38:27;;;;;;;14.53;6.03;;;5.20;99.90;;;;;;4992881;28;20047;-74
2023/03/08 05:40:53;;;;;;;14.93;6.10;;;5.20;99.90;;;;;;4975472;28;20092;-74
2023/03/08 05:43:19;;;;;;;11.33;5.83;;;5.20;99.90;;;;;;4992689;28;20665;-74
2023/03/08 05:46:02;;;;;;;14.50;6.33;;;5.30;99.90;;;;;;4975425;28;20105;-74
2023/03/08 05:48:29;;;;;;;15.43;5.83;;;5.30;99.90;;;;;;4975801;28;20033;-74
2023/03/08 05:50:54;;;;;;;12.23;5.93;;;5.20;99.90;;;;;;4978590;28;20483;-74
2023/03/08 05:53:21;;;;;;;14.03;6.30;;;5.30;99.90;;;;;;4978502;28;20034;-73
2023/03/08 05:55:47;;;;;;;13.10;6.30;;;5.30;99.90;;;;;;4984160;28;20046;-73
2023/03/08 05:58:13;;;;;;;15.37;5.73;;;5.30;99.90;;;;;;4995738;28;20042;-73
2023/03/08 06:00:38;;;;;;;15.97;6.50;;;5.30;99.90;;;;;;4996359;28;20117;-73
2023/03/08 06:03:04;;;;;;;16.17;6.33;;;5.30;99.90;;;;;;4993958;28;20036;-74
2023/03/08 06:05:31;;;;;;;12.10;5.97;;;5.30;99.90;;;;;;4994717;28;20026;-73
2023/03/08 06:07:57;;;;;;;13.47;6.13;;;5.30;99.90;;;;;;4994474;28;20038;-73
2023/03/08 06:10:22;;;;;;;14.33;6.70;;;5.30;99.90;;;;;;4995573;28;20030;-74
2023/03/08 06:12:48;;;;;;;13.00;6.27;;;5.30;99.90;;;;;;4995976;28;20084;-74
2023/03/08 06:15:14;;;;;;;14.83;6.17;;;5.30;99.90;;;;;;4995339;28;20042;-73
2023/03/08 06:17:40;;;;;;;11.40;5.83;;;5.30;99.90;;;;;;4994385;28;20121;-73
2023/03/08 06:20:07;;;;;;;14.23;6.33;;;5.30;99.90;;;;;;4994611;28;20034;-74
2023/03/08 06:22:33;;;;;;;13.83;6.37;;;5.40;99.90;;;;;;4994579;28;20353;-74
2023/03/08 06:24:58;;;;;;;14.07;6.57;;;5.40;99.90;;;;;;4994358;28;20029;-76
2023/03/08 06:27:24;;;;;;;15.13;6.40;;;5.40;99.90;;;;;;4994201;28;20031;-74
2023/03/08 06:29:50;;;;;;;15.33;6.50;;;5.40;99.90;;;;;;4994379;28;20022;-73
2023/03/08 06:32:16;;;;;;;20.67;7.00;;;5.40;99.90;;;;;;4995104;28;20097;-74
2023/03/08 06:34:42;;;;;;;13.07;6.60;;;5.40;99.90;;;;;;4995523;28;20030;-74
2023/03/08 06:37:08;;;;;;;17.63;7.53;;;5.40;99.90;;;;;;4993529;28;20038;-75
2023/03/08 06:39:33;;;;;;;17.23;8.00;;;5.40;99.90;;;;;;4995176;28;20378;-74
2023/03/08 06:42:02;;;;;;;15.47;6.90;;;5.40;99.90;;;;;;4993829;28;20054;-78
2023/03/08 06:44:29;;;;;;;13.27;6.90;;;5.30;99.90;;;;;;4993787;28;20077;-74
2023/03/08 06:46:54;;;;;;;18.30;7.50;;;5.20;99.90;;;;;;4993567;28;20066;-74
2023/03/08 06:49:21;;;;;;;14.10;7.43;;;5.20;99.90;;;;;;4992983;28;20054;-74
2023/03/08 06:51:46;;;;;;;16.83;6.20;;;5.10;99.90;;;;;;4993551;28;20124;-74
2023/03/08 06:54:16;;;;;;;14.80;6.70;;;5.20;99.90;;;;;;4994176;28;20437;-74
2023/03/08 06:56:43;;;;;;;17.10;7.23;;;5.10;99.90;;;;;;4964178;28;20472;-74
2023/03/08 06:59:09;;;;;;;16.00;7.07;;;5.00;99.90;;;;;;4967092;28;20421;-74
2023/03/08 07:01:35;;;;;;;14.97;6.80;;;5.10;99.90;;;;;;4938728;29;20057;-73
2023/03/08 07:04:00;;;;;;;16.30;7.37;;;5.00;99.90;;;;;;4955569;29;20087;-75
2023/03/08 07:06:26;;;;;;;14.93;7.00;;;5.00;99.90;;;;;;4955332;29;20039;-73
2023/03/08 07:08:52;;;;;;;15.53;6.77;;;5.00;99.90;;;;;;4938555;29;20113;-73
2023/03/08 07:11:17;;;;;;;14.77;7.03;;;4.90;99.90;;;;;;4955312;28;20107;-73
2023/03/08 07:13:43;;;;;;;15.17;7.73;;;5.00;99.90;;;;;;4955593;29;20059;-73
2023/03/08 07:16:10;;;;;;;17.37;7.40;;;4.90;99.90;;;;;;4946607;28;20427;-74
2023/03/08 07:18:36;;;;;;;12.60;5.90;;;4.80;99.90;;;;;;4975074;28;20042;-74
2023/03/08 07:21:03;;;;;;;15.57;7.30;;;4.80;99.90;;;;;;4957095;28;20392;-78
2023/03/08 07:23:28;;;;;;;15.67;7.67;;;4.70;99.90;;;;;;4956971;28;20054;-74
2023/03/08 07:25:54;;;;;;;16.13;7.40;;;4.70;99.90;;;;;;4974743;28;20065;-74
2023/03/08 07:28:20;;;;;;;14.90;7.47;;;4.70;99.90;;;;;;4974624;28;20551;-74
2023/03/08 07:30:47;;;;;;;18.93;7.67;;;4.70;99.90;;;;;;4957356;28;20092;-74
2023/03/08 07:33:13;;;;;;;16.10;7.20;;;4.70;99.90;;;;;;4956864;28;20026;-74
2023/03/08 07:35:39;;;;;;;15.47;6.97;;;4.80;99.90;;;;;;4956976;28;20027;-74
2023/03/08 07:38:04;;;;;;;15.67;6.50;;;4.80;99.90;;;;;;4974163;28;20050;-77
2023/03/08 07:40:30;;;;;;;13.60;6.60;;;4.80;99.90;;;;;;4974596;28;20433;-74
2023/03/08 07:42:56;;;;;;;15.20;6.40;;;4.80;99.90;;;;;;4957309;28;20038;-74
2023/03/08 07:45:22;;;;;;;14.17;7.20;;;4.90;99.90;;;;;;4956811;28;20113;-74
2023/03/08 07:47:54;;;;;;;16.87;7.43;;;4.90;99.90;;;;;;4974557;28;20026;-74
2023/03/08 07:50:20;;;;;;;20.20;7.97;;;4.80;99.90;;;;;;4974060;28;20030;-74
2023/03/08 07:52:47;;;;;;;15.80;6.70;;;4.90;99.90;;;;;;4957141;28;20111;-74
2023/03/08 07:55:13;;;;;;;15.23;7.47;;;4.90;99.90;;;;;;4961688;28;20046;-74
2023/03/08 07:57:39;;;;;;;14.70;6.73;;;4.90;99.90;;;;;;4992365;28;20036;-74
2023/03/08 08:00:08;;;;;;;14.37;6.00;;;4.80;99.90;;;;;;4993351;28;20493;-76
2023/03/08 08:02:35;;;;;;;13.60;6.07;;;4.90;99.90;;;;;;4992409;28;20459;-74
2023/03/08 08:05:03;;;;;;;12.27;5.93;;;4.80;99.90;;;;;;4992423;28;20034;-74
2023/03/08 08:07:29;;;;;;;13.67;5.83;;;4.80;99.90;;;;;;4991913;28;20062;-74
2023/03/08 08:09:55;;;;;;;17.87;6.97;;;4.80;99.90;;;;;;4994061;28;20026;-74
2023/03/08 08:12:22;;;;;;;14.40;6.30;;;4.80;99.90;;;;;;4992482;28;20030;-74
2023/03/08 08:14:53;;;;;;;14.87;6.63;;;4.70;99.90;;;;;;4992491;28;20034;-74
2023/03/08 08:17:20;;;;;;;15.15;6.68;;;4.70;99.90;;;;;;4992657;28;20053;-74
2023/03/08 08:19:46;;;;;;;11.27;5.80;;;4.70;99.90;;;;;;4991891;28;20092;-74
2023/03/08 08:22:11;;;;;;;11.87;5.53;;;4.80;99.90;;;;;;4992480;28;20030;-74
2023/03/08 08:24:37;;;;;;;13.07;6.33;;;4.80;99.90;;;;;;4992315;28;20033;-74
2023/03/08 08:27:03;;;;;;;13.03;6.37;;;4.90;99.90;;;;;;4992236;28;20482;-74
2023/03/08 08:29:28;;;;;;;12.57;6.60;;;4.90;99.90;;;;;;4992688;28;20030;-74
2023/03/08 08:31:55;;;;;;;17.47;7.00;;;5.00;99.90;;;;;;4992270;28;20027;-74
2023/03/08 08:34:21;;;;;;;13.73;6.50;;;4.90;99.90;;;;;;4991110;28;20077;-74
2023/03/08 08:36:47;;;;;;;13.50;6.40;;;5.00;99.90;;;;;;4993003;28;20042;-74
2023/03/08 08:39:12;;;;;;;12.07;6.17;;;5.00;99.90;;;;;;4992480;28;20030;-74
2023/03/08 08:41:38;;;;;;;12.53;5.83;;;5.00;99.90;;;;;;4992755;28;20487;-74
2023/03/08 08:44:04;;;;;;;12.67;5.90;;;5.00;99.90;;;;;;4991940;28;20460;-74
2023/03/08 08:46:32;;;;;;;13.20;5.90;;;5.00;99.90;;;;;;4991227;28;20033;-74
2023/03/08 08:48:58;;;;;;;12.07;5.50;;;4.90;99.90;;;;;;4991920;28;20095;-74
2023/03/08 08:51:24;;;;;;;11.07;5.60;;;4.90;99.90;;;;;;4991465;28;20415;-73
2023/03/08 08:53:49;;;;;;;11.53;5.27;;;4.80;99.90;;;;;;4992202;28;20022;-73
2023/03/08 08:56:21;;;;;;;11.93;5.43;;;4.80;99.90;;;;;;4991096;28;20486;-73
2023/03/08 08:58:47;;;;;;;10.40;5.45;;;4.80;99.90;;;;;;4991957;28;20121;-73
2023/03/08 09:01:15;;;;;;;9.43;5.00;;;4.90;99.90;;;;;;4991349;28;20121;-74
2023/03/08 09:03:41;;;;;;;12.00;5.50;;;4.90;99.90;;;;;;4980692;28;20089;-73
2023/03/08 09:06:06;;;;;;;11.13;5.00;;;4.90;99.90;;;;;;4986522;28;20038;-74
2023/03/08 09:08:32;;;;;;;11.70;5.53;;;4.90;99.90;;;;;;4987002;28;20042;-73
2023/03/08 09:11:03;;;;;;;10.03;4.90;;;4.90;99.90;;;;;;4989342;28;20018;-72
2023/03/08 09:13:29;;;;;;;13.43;5.93;;;4.90;99.90;;;;;;4990512;28;20511;-74
2023/03/08 09:15:54;;;;;;;11.00;5.53;;;4.90;99.90;;;;;;4977039;28;20353;-73
2023/03/08 09:18:20;;;;;;;11.70;5.30;;;4.80;99.90;;;;;;4989308;28;20399;-73
2023/03/08 09:20:46;;;;;;;11.67;5.10;;;4.80;99.90;;;;;;4991284;28;20486;-74
2023/03/08 09:23:11;;;;;;;11.33;5.70;;;4.90;99.90;;;;;;4987536;28;20022;-74
2023/03/08 09:25:37;;;;;;;13.70;5.07;;;4.80;99.90;;;;;;4995372;28;20428;-73
2023/03/08 09:28:03;;;;;;;11.07;5.40;;;4.90;99.90;;;;;;4995152;28;20034;-76
2023/03/08 09:30:29;;;;;;;10.03;5.60;;;4.80;99.90;;;;;;4995407;28;20596;-72
2023/03/08 09:32:55;;;;;;;13.87;5.77;;;4.90;99.90;;;;;;4994763;28;20363;-73
2023/03/08 09:35:20;;;;;;;10.97;5.23;;;4.90;99.90;;;;;;4986617;28;20459;-74
2023/03/08 09:37:46;;;;;;;14.17;6.40;;;5.00;99.90;;;;;;4991220;28;20490;-73
2023/03/08 09:40:24;;;;;;;11.83;5.50;;;5.00;99.90;;;;;;4976690;28;20034;-74
2023/03/08 09:42:51;;;;;;;12.90;5.47;;;5.10;99.90;;;;;;4994909;28;20022;-74
2023/03/08 09:45:24;;;;;;;13.53;5.60;;;5.20;99.90;;;;;;4986053;28;20038;-73
2023/03/08 09:48:12;;;;;;;10.80;5.40;;;5.20;99.90;;;;;;4994377;28;20501;-73
2023/03/08 09:50:48;;;;;;;12.60;6.10;;;5.30;99.90;;;;;;4979410;28;20029;-73
2023/03/08 09:53:27;;;;;;;11.67;6.13;;;5.30;99.90;;;;;;4985715;28;20022;-73
2023/03/08 09:56:15;;;;;;;12.00;6.03;;;5.40;99.90;;;;;;4989771;28;20383;-76
2023/03/08 09:58:49;;;;;;;10.67;5.30;;;5.40;99.90;;;;;;4954146;28;20026;-74
2023/03/08 10:01:46;;;;;;;11.67;5.90;;;5.40;99.90;;;;;;4968156;28;20026;-73
2023/03/08 10:04:29;;;;;;;11.40;5.63;;;5.50;99.90;;;;;;4965398;28;20061;-73
2023/03/08 10:07:29;;;;;;;12.63;5.80;;;5.50;99.90;;;;;;4973610;28;20034;-74
2023/03/08 10:09:58;;;;;;;11.93;5.27;;;5.40;99.90;;;;;;4989260;28;20089;-74
2023/03/08 10:12:36;;;;;;;11.67;5.53;;;5.50;99.90;;;;;;4990877;28;20113;-73
2023/03/08 10:15:09;;;;;;;10.40;5.70;;;5.50;99.90;;;;;;4977648;28;20038;-76
2023/03/08 10:17:51;;;;;;;11.43;5.83;;;5.50;99.90;;;;;;4971298;28;20034;-73
2023/03/08 10:20:28;;;;;;;11.63;5.47;;;5.60;99.90;;;;;;4979098;28;20117;-74
2023/03/08 10:23:00;;;;;;;12.77;5.97;;;5.60;99.90;;;;;;4971934;28;20033;-74
2023/03/08 10:25:27;;;;;;;;;;;5.60;99.90;;;;;;4974706;28;20026;-73
2023/03/08 10:27:55;;;;;;;14.57;5.93;;;5.60;99.90;;;;;;4974676;28;19912;-75
2023/03/08 10:30:36;;;;;;;11.70;5.77;;;5.70;99.90;;;;;;4969129;28;20113;-73
2023/03/08 10:33:09;;;;;;;12.80;5.40;;;5.70;99.90;;;;;;4989332;28;20045;-73
2023/03/08 10:35:58;;;;;;;13.43;6.17;;;5.80;99.90;;;;;;4977996;28;20033;-81
2023/03/08 10:38:26;;;;;;;11.60;5.77;;;5.80;99.90;;;;;;4971399;28;20041;-74
2023/03/08 10:41:14;;;;;;;11.40;5.93;;;5.70;99.90;;;;;;4971002;28;20038;-73
2023/03/08 10:43:45;;;;;;;12.13;6.47;;;5.70;99.90;;;;;;4990995;28;20068;-73
2023/03/08 10:46:14;;;;;;;17.10;6.35;;;5.70;99.90;;;;;;4969945;28;20030;-73
2023/03/08 10:48:40;;;;;;;11.93;5.33;;;5.70;99.90;;;;;;4988063;28;20146;-72
2023/03/08 10:51:22;;;;;;;13.03;6.67;;;5.70;99.90;;;;;;4971106;28;20066;-73
2023/03/08 10:53:57;;;;;;;10.70;4.85;;;5.70;99.90;;;;;;4965180;28;20027;-73
2023/03/08 10:56:30;;;;;;;12.93;6.50;;;5.70;99.90;;;;;;4988802;28;20042;-73
2023/03/08 10:58:57;;;;;;;11.53;6.33;;;5.60;99.90;;;;;;4971099;28;20368;-73
2023/03/08 11:01:27;;;;;;;15.60;7.43;;;5.70;99.90;;;;;;4987926;28;20030;-73
2023/03/08 11:04:15;;;;;;;13.60;7.27;;;5.80;99.90;;;;;;4971990;28;20452;-74
2023/03/08 11:06:41;;;;;;;17.83;7.57;;;5.80;99.90;;;;;;4985800;28;20030;-74
2023/03/08 11:09:36;;;;;;;13.27;6.77;;;5.90;99.90;;;;;;4969625;28;20060;-73
2023/03/08 11:12:02;;;;;;;13.27;6.70;;;6.10;99.90;;;;;;4958884;28;20551;-73
2023/03/08 11:14:28;;;;;;;12.33;6.70;;;6.10;99.90;;;;;;4970844;28;20157;-73
2023/03/08 11:16:57;;;;;;;13.30;6.30;;;6.20;99.90;;;;;;4970849;28;20092;-74
2023/03/08 11:19:32;;;;;;;14.23;6.27;;;6.30;99.90;;;;;;4970153;28;20053;-73
2023/03/08 11:22:11;;;;;;;14.27;6.53;;;6.40;99.90;;;;;;4987824;28;20022;-73
2023/03/08 11:25:13;;;;;;;14.00;6.50;;;6.50;99.90;;;;;;4967726;28;20492;-73
2023/03/08 11:28:00;;;;;;;10.80;5.70;;;6.60;99.90;;;;;;4928554;28;20049;-73
2023/03/08 11:30:53;;;;;;;10.73;5.40;;;6.80;99.90;;;;;;4969944;28;20038;-73
2023/03/08 11:33:28;;;;;;;8.77;4.90;;;6.90;99.90;;;;;;4962546;28;20053;-73
2023/03/08 11:36:06;;;;;;;8.03;4.53;;;7.10;99.90;;;;;;4975456;28;20018;-73
2023/03/08 11:38:34;;;;;;;10.27;4.20;;;7.20;99.90;;;;;;4975464;28;20034;-73
2023/03/08 11:41:26;;;;;;;7.97;4.17;;;7.30;99.90;;;;;;4974531;28;20033;-73
2023/03/08 11:44:09;;;;;;;9.13;3.72;;;7.40;99.90;;;;;;4990904;28;20022;-72
2023/03/08 11:46:55;;;;;;;7.20;2.83;;;7.60;99.90;;;;;;4960942;28;20027;-74
2023/03/08 11:49:39;;;;;;;4.13;2.43;;;7.80;99.90;;;;;;4973674;28;20481;-73
2023/03/08 11:52:17;;;;;;;5.53;2.43;;;7.90;99.90;;;;;;4973321;28;20026;-72
2023/03/08 11:54:45;;;;;;;4.63;2.17;;;8.20;99.90;;;;;;4989051;28;20044;-73
2023/03/08 11:57:16;;;;;;;5.13;2.30;;;8.40;99.90;;;;;;4967475;28;20034;-73
2023/03/08 11:59:50;;;;;;;1.92;1.40;;;8.60;99.90;;;;;;4990432;28;20218;-73
2023/03/08 12:02:28;;;;;;;5.53;2.00;;;8.70;99.90;;;;;;4989791;28;20082;-72
2023/03/08 12:05:28;;;;;;;3.67;1.85;;;8.80;99.90;;;;;;4982006;28;20018;-73
2023/03/08 12:08:23;;;;;;;3.38;1.40;;;9.00;99.90;;;;;;4968463;28;20030;-76
2023/03/08 12:11:02;;;;;;;3.40;1.77;;;9.10;99.90;;;;;;4971811;28;20352;-73
2023/03/08 12:13:35;;;;;;;2.97;1.73;;;9.20;99.90;;;;;;4989084;28;20068;-73
2023/03/08 12:16:16;;;;;;;2.30;1.58;;;9.20;99.90;;;;;;4966147;28;20018;-73
2023/03/08 12:18:55;;;;;;;2.83;1.70;;;9.40;99.90;;;;;;4970522;28;20479;-74
2023/03/08 12:21:34;;;;;;;3.38;1.80;;;9.40;99.90;;;;;;4987006;28;20023;-73
2023/03/08 12:24:28;;;;;;;1.75;1.15;;;9.50;99.90;;;;;;4989128;28;20034;-73
2023/03/08 12:27:07;;;;;;;4.22;1.38;;;9.60;99.90;;;;;;4971188;28;20383;-73
2023/03/08 12:29:44;;;;;;;3.88;1.20;;;9.70;99.90;;;;;;4968089;28;20030;-73
2023/03/08 12:32:12;;;;;;;2.45;1.10;;;9.80;99.90;;;;;;4974734;28;20113;-74
2023/03/08 12:34:39;;;;;;;3.53;1.10;;;9.90;99.90;;;;;;4974243;28;20029;-73
2023/03/08 12:37:25;;;;;;;1.92;1.00;;;10.00;99.90;;;;;;4970087;28;20042;-76
2023/03/08 12:40:08;;;;;;;2.58;0.90;;;10.10;99.90;;;;;;4979000;28;20031;-73
2023/03/08 12:42:36;;;;;;;2.08;1.08;;;10.10;99.90;;;;;;4974565;28;20045;-74
2023/03/08 12:45:18;;;;;;;1.52;0.98;;;10.20;99.90;;;;;;4969005;28;20031;-75
2023/03/08 12:48:00;;;;;;;1.98;1.00;;;10.30;99.90;;;;;;4987764;28;20065;-73
2023/03/08 12:50:26;;;;;;;3.17;1.33;;;10.30;99.90;;;;;;4990837;28;20096;-73
2023/03/08 12:52:52;;;;;;;1.85;1.17;;;10.40;99.90;;;;;;4986056;28;20030;-73
2023/03/08 12:55:25;;;;;;;2.53;1.15;;;10.50;99.90;;;;;;4977946;28;20047;-73
2023/03/08 12:57:53;;;;;;;1.73;0.85;;;10.50;99.90;;;;;;4981380;28;20380;-73
2023/03/08 13:00:19;;;;;;;1.90;1.02;;;10.60;99.90;;;;;;4972636;28;20476;-73